Arley, Alabama
Current Conditions -  °F | °C
As of 12:55 PM on Thursday 30 Oct 2014 (Local Time) from KJFX Reporting Station
Clear Clear  
Wind Chill: 21°   Ceiling: Unl
Heat Index: 21°   Visibility: 10mi
Dew Point:   Wind: 7mph
Humidity: 31%   Direction: 30°NNE
Pressure: 30.11"   Gusts: NA
Location:  34.08°N, 87.21°W
Report Text: KJFX 301755Z AUTO 03006KT 10SM CLR 21/03 A3011 RMK A02 P-128
Loading
Personal Weather Stations






























Interactive Weather Map
Tropical Storm Tracking
New forecast layout! Learn more

10-Day Weather Forecast

Advertisements
Track Severe Weather on mobile